This is the latest recevied weather packets stored in our database for station/object KP4CRN. If no packets are shown the sender has not sent any weather packets the latest 1 day(s).
| Time | Temp. | Humidity | Pressure | Rain* | Wind** | Luminosity | Snow |
|---|---|---|---|---|---|---|---|
| 1778083633 | 32.78° C | 58% | 1018.3 hPa | 0 mm | - | 827 W/m² | - |
| 1778081592 | 32.78° C | 62% | 1018.8 hPa | 0 mm | - | 816 W/m² | - |
| 1778081289 | 32.22° C | 62% | 1018.8 hPa | 0 mm | - | 804 W/m² | - |
| 1778079472 | 31.67° C | 67% | 1018.9 hPa | 0 mm | - | 790 W/m² | - |
| 1778078866 | 31.67° C | 66% | 1019.1 hPa | 0 mm | - | 783 W/m² | - |
| 1778077656 | 31.67° C | 69% | 1019 hPa | 0 mm | - | 713 W/m² | - |
| 1778076750 | 31.11° C | 70% | 1019.2 hPa | 0 mm | - | 685 W/m² | - |
| 1778075234 | 29.44° C | 79% | 1019.5 hPa | 0 mm | - | 119 W/m² | - |
| 1778074021 | 30° C | 76% | 1019.2 hPa | 0 mm | - | 190 W/m² | - |
| 1778073718 | 30° C | 75% | 1019.3 hPa | 0 mm | - | 431 W/m² | - |
| 1778072506 | 29.44° C | 77% | 1019.1 hPa | 0 mm | - | 452 W/m² | - |
| 1778072204 | 29.44° C | 77% | 1018.9 hPa | 0 mm | - | 486 W/m² | - |
| 1778071599 | 28.89° C | 80% | 1019 hPa | 0 mm | - | 355 W/m² | - |
| 1778070994 | 28.33° C | 82% | 1018.8 hPa | 0 mm | - | 269 W/m² | - |
| 1778070389 | 27.78° C | 84% | 1019 hPa | 0 mm | - | 177 W/m² | - |
| 1778068574 | 27.78° C | 84% | 1018.7 hPa | 0 mm | - | 282 W/m² | - |
| 1778068272 | 27.78° C | 85% | 1018.7 hPa | 0 mm | - | 240 W/m² | - |
| 1778067667 | 27.78° C | 84% | 1018.7 hPa | 0 mm | - | 225 W/m² | - |
| 1778066758 | 26.67° C | 85% | 1019 hPa | 0 mm | - | 130 W/m² | - |
| 1778065548 | 26.11° C | 88% | 1018.7 hPa | 0 mm | - | 80 W/m² | - |
| 1778065245 | 26.11° C | 88% | 1018.5 hPa | 0 mm | - | 121 W/m² | - |
| 1778064941 | 26.11° C | 88% | 1018.4 hPa | 0 mm | - | 72 W/m² | - |
| 1778064639 | 25.56° C | 89% | 1018.4 hPa | 0 mm | - | 100 W/m² | - |
| 1778064034 | 25° C | 91% | 1018.2 hPa | 0 mm | - | 54 W/m² | - |
| 1778063731 | 25° C | 92% | 1018.3 hPa | 0 mm | - | 47 W/m² | - |
* Rain latest hour (hover to see other rain measurements)
** Current wind speed in m/s (hover to see current wind gust speed)